sensor_id;sensor_type;location;lat;lon;timestamp;temperature;humidity
52963;DHT22;38827;53.024;6.596;2023-08-06T00:00:26;14.70;87.10
52963;DHT22;38827;53.024;6.596;2023-08-06T00:02:52;14.70;87.10
52963;DHT22;38827;53.024;6.596;2023-08-06T00:05:18;14.70;87.00
52963;DHT22;38827;53.024;6.596;2023-08-06T00:07:48;14.70;87.00
52963;DHT22;38827;53.024;6.596;2023-08-06T00:10:15;14.70;87.10
52963;DHT22;38827;53.024;6.596;2023-08-06T00:12:41;14.70;87.20
52963;DHT22;38827;53.024;6.596;2023-08-06T00:15:07;14.70;87.00
52963;DHT22;38827;53.024;6.596;2023-08-06T00:17:34;14.70;87.00
52963;DHT22;38827;53.024;6.596;2023-08-06T00:20:00;14.70;87.00
52963;DHT22;38827;53.024;6.596;2023-08-06T00:22:37;14.60;86.90
52963;DHT22;38827;53.024;6.596;2023-08-06T00:25:05;14.60;86.90
52963;DHT22;38827;53.024;6.596;2023-08-06T00:27:32;14.60;87.00
52963;DHT22;38827;53.024;6.596;2023-08-06T00:29:58;14.60;87.00
52963;DHT22;38827;53.024;6.596;2023-08-06T00:32:23;14.60;86.60
52963;DHT22;38827;53.024;6.596;2023-08-06T00:34:49;14.50;87.00
52963;DHT22;38827;53.024;6.596;2023-08-06T00:37:16;14.50;87.00
52963;DHT22;38827;53.024;6.596;2023-08-06T00:39:42;14.50;87.10
52963;DHT22;38827;53.024;6.596;2023-08-06T00:42:09;14.50;87.00
52963;DHT22;38827;53.024;6.596;2023-08-06T00:44:35;14.50;87.00
52963;DHT22;38827;53.024;6.596;2023-08-06T00:47:05;14.50;87.00
52963;DHT22;38827;53.024;6.596;2023-08-06T00:49:31;14.50;87.10
52963;DHT22;38827;53.024;6.596;2023-08-06T00:51:57;14.50;87.10
52963;DHT22;38827;53.024;6.596;2023-08-06T00:54:24;14.50;87.20
52963;DHT22;38827;53.024;6.596;2023-08-06T00:56:50;14.50;87.10
52963;DHT22;38827;53.024;6.596;2023-08-06T00:59:16;14.50;87.20
52963;DHT22;38827;53.024;6.596;2023-08-06T01:01:41;14.50;87.10
52963;DHT22;38827;53.024;6.596;2023-08-06T01:04:07;14.40;87.20
52963;DHT22;38827;53.024;6.596;2023-08-06T01:06:43;14.50;87.30
52963;DHT22;38827;53.024;6.596;2023-08-06T01:09:33;14.50;87.30
52963;DHT22;38827;53.024;6.596;2023-08-06T01:12:18;14.50;87.30
52963;DHT22;38827;53.024;6.596;2023-08-06T01:14:57;14.50;87.40
52963;DHT22;38827;53.024;6.596;2023-08-06T01:17:24;14.50;87.50
52963;DHT22;38827;53.024;6.596;2023-08-06T01:19:52;14.40;87.50
52963;DHT22;38827;53.024;6.596;2023-08-06T01:22:18;14.50;87.50
52963;DHT22;38827;53.024;6.596;2023-08-06T01:24:47;14.50;87.50
52963;DHT22;38827;53.024;6.596;2023-08-06T01:30:12;14.50;87.50
52963;DHT22;38827;53.024;6.596;2023-08-06T01:32:44;14.50;87.60
52963;DHT22;38827;53.024;6.596;2023-08-06T01:35:11;14.50;87.70
52963;DHT22;38827;53.024;6.596;2023-08-06T01:37:38;14.50;87.50
52963;DHT22;38827;53.024;6.596;2023-08-06T01:40:11;14.50;87.50
52963;DHT22;38827;53.024;6.596;2023-08-06T01:42:37;14.50;87.50
52963;DHT22;38827;53.024;6.596;2023-08-06T01:45:03;14.50;87.50
52963;DHT22;38827;53.024;6.596;2023-08-06T01:47:29;14.50;87.50
52963;DHT22;38827;53.024;6.596;2023-08-06T01:49:55;14.50;87.40
52963;DHT22;38827;53.024;6.596;2023-08-06T01:52:21;14.50;87.40
52963;DHT22;38827;53.024;6.596;2023-08-06T01:54:47;14.50;87.30
52963;DHT22;38827;53.024;6.596;2023-08-06T01:57:14;14.40;87.40
52963;DHT22;38827;53.024;6.596;2023-08-06T01:59:39;14.40;87.50
52963;DHT22;38827;53.024;6.596;2023-08-06T02:02:05;14.40;87.60
52963;DHT22;38827;53.024;6.596;2023-08-06T02:04:31;14.40;87.60
52963;DHT22;38827;53.024;6.596;2023-08-06T02:06:59;14.40;87.60
52963;DHT22;38827;53.024;6.596;2023-08-06T02:09:25;14.40;87.80
52963;DHT22;38827;53.024;6.596;2023-08-06T02:15:03;14.40;87.80
52963;DHT22;38827;53.024;6.596;2023-08-06T02:21:25;14.40;87.90
52963;DHT22;38827;53.024;6.596;2023-08-06T02:24:06;14.40;88.00
52963;DHT22;38827;53.024;6.596;2023-08-06T02:26:32;14.40;88.00
52963;DHT22;38827;53.024;6.596;2023-08-06T02:28:58;14.40;88.10
52963;DHT22;38827;53.024;6.596;2023-08-06T02:31:23;14.40;88.10
52963;DHT22;38827;53.024;6.596;2023-08-06T02:33:49;14.40;88.10
52963;DHT22;38827;53.024;6.596;2023-08-06T02:36:14;14.40;88.10
52963;DHT22;38827;53.024;6.596;2023-08-06T02:38:40;14.40;88.20
52963;DHT22;38827;53.024;6.596;2023-08-06T02:41:09;14.40;88.10
52963;DHT22;38827;53.024;6.596;2023-08-06T02:43:34;14.40;88.20
52963;DHT22;38827;53.024;6.596;2023-08-06T02:46:00;14.40;88.10
52963;DHT22;38827;53.024;6.596;2023-08-06T02:48:26;14.50;88.20
52963;DHT22;38827;53.024;6.596;2023-08-06T02:50:52;14.50;88.20
52963;DHT22;38827;53.024;6.596;2023-08-06T02:53:18;14.50;88.20
52963;DHT22;38827;53.024;6.596;2023-08-06T02:55:47;14.50;88.30
52963;DHT22;38827;53.024;6.596;2023-08-06T02:58:14;14.50;88.10
52963;DHT22;38827;53.024;6.596;2023-08-06T03:00:40;14.50;88.00
52963;DHT22;38827;53.024;6.596;2023-08-06T03:03:05;14.50;87.90
52963;DHT22;38827;53.024;6.596;2023-08-06T03:05:31;14.50;87.90
52963;DHT22;38827;53.024;6.596;2023-08-06T03:07:56;14.50;87.90
52963;DHT22;38827;53.024;6.596;2023-08-06T03:10:22;14.50;88.00
52963;DHT22;38827;53.024;6.596;2023-08-06T03:12:48;14.50;87.90
52963;DHT22;38827;53.024;6.596;2023-08-06T03:15:13;14.50;87.90
52963;DHT22;38827;53.024;6.596;2023-08-06T03:17:39;14.50;87.90
52963;DHT22;38827;53.024;6.596;2023-08-06T03:20:07;14.40;87.90
52963;DHT22;38827;53.024;6.596;2023-08-06T03:22:34;14.40;87.90
52963;DHT22;38827;53.024;6.596;2023-08-06T03:24:59;14.40;87.90
52963;DHT22;38827;53.024;6.596;2023-08-06T03:27:25;14.40;87.90
52963;DHT22;38827;53.024;6.596;2023-08-06T03:29:51;14.40;87.90
52963;DHT22;38827;53.024;6.596;2023-08-06T03:32:16;14.30;87.80
52963;DHT22;38827;53.024;6.596;2023-08-06T03:34:42;14.30;88.00
52963;DHT22;38827;53.024;6.596;2023-08-06T03:37:08;14.30;88.20
52963;DHT22;38827;53.024;6.596;2023-08-06T03:39:34;14.20;88.30
52963;DHT22;38827;53.024;6.596;2023-08-06T03:41:59;14.20;88.30
52963;DHT22;38827;53.024;6.596;2023-08-06T03:44:27;14.10;88.30
52963;DHT22;38827;53.024;6.596;2023-08-06T03:46:54;14.10;88.40
52963;DHT22;38827;53.024;6.596;2023-08-06T03:49:19;14.10;88.60
52963;DHT22;38827;53.024;6.596;2023-08-06T03:51:45;14.00;88.70
52963;DHT22;38827;53.024;6.596;2023-08-06T03:54:11;14.00;88.80
52963;DHT22;38827;53.024;6.596;2023-08-06T03:56:37;14.00;88.70
52963;DHT22;38827;53.024;6.596;2023-08-06T03:59:02;13.90;88.70
52963;DHT22;38827;53.024;6.596;2023-08-06T04:01:28;13.90;88.70
52963;DHT22;38827;53.024;6.596;2023-08-06T04:03:53;13.90;88.80
52963;DHT22;38827;53.024;6.596;2023-08-06T04:06:19;13.90;88.90
52963;DHT22;38827;53.024;6.596;2023-08-06T04:08:45;13.80;88.90
52963;DHT22;38827;53.024;6.596;2023-08-06T04:11:10;13.80;89.00
52963;DHT22;38827;53.024;6.596;2023-08-06T04:13:37;13.80;89.00
52963;DHT22;38827;53.024;6.596;2023-08-06T04:16:06;13.80;89.00
52963;DHT22;38827;53.024;6.596;2023-08-06T04:18:32;13.80;89.00
52963;DHT22;38827;53.024;6.596;2023-08-06T04:20:57;13.80;89.10
52963;DHT22;38827;53.024;6.596;2023-08-06T04:23:24;13.80;89.10
52963;DHT22;38827;53.024;6.596;2023-08-06T04:25:50;13.80;89.20
52963;DHT22;38827;53.024;6.596;2023-08-06T04:28:16;13.80;89.20
52963;DHT22;38827;53.024;6.596;2023-08-06T04:30:41;13.80;89.20
52963;DHT22;38827;53.024;6.596;2023-08-06T04:33:07;13.80;89.20
52963;DHT22;38827;53.024;6.596;2023-08-06T04:35:33;13.80;89.30
52963;DHT22;38827;53.024;6.596;2023-08-06T04:37:58;13.80;89.30
52963;DHT22;38827;53.024;6.596;2023-08-06T04:40:24;13.80;89.40
52963;DHT22;38827;53.024;6.596;2023-08-06T04:42:50;13.90;89.40
52963;DHT22;38827;53.024;6.596;2023-08-06T04:45:15;13.90;89.40
52963;DHT22;38827;53.024;6.596;2023-08-06T04:47:41;13.90;89.50
52963;DHT22;38827;53.024;6.596;2023-08-06T04:50:07;13.90;89.50
52963;DHT22;38827;53.024;6.596;2023-08-06T04:52:32;14.00;89.40
52963;DHT22;38827;53.024;6.596;2023-08-06T04:54:58;14.00;89.30
52963;DHT22;38827;53.024;6.596;2023-08-06T04:57:24;14.00;89.20
52963;DHT22;38827;53.024;6.596;2023-08-06T04:59:49;14.00;89.20
52963;DHT22;38827;53.024;6.596;2023-08-06T05:02:16;14.10;89.10
52963;DHT22;38827;53.024;6.596;2023-08-06T05:04:42;14.10;89.20
52963;DHT22;38827;53.024;6.596;2023-08-06T05:07:10;14.20;89.00
52963;DHT22;38827;53.024;6.596;2023-08-06T05:09:45;14.20;89.00
52963;DHT22;38827;53.024;6.596;2023-08-06T05:12:16;14.20;89.00
52963;DHT22;38827;53.024;6.596;2023-08-06T05:14:54;14.20;89.00
52963;DHT22;38827;53.024;6.596;2023-08-06T05:17:23;14.30;88.80
52963;DHT22;38827;53.024;6.596;2023-08-06T05:19:49;14.30;88.70
52963;DHT22;38827;53.024;6.596;2023-08-06T05:22:15;14.30;88.60
52963;DHT22;38827;53.024;6.596;2023-08-06T05:24:41;14.30;88.50
52963;DHT22;38827;53.024;6.596;2023-08-06T05:27:07;14.30;88.50
52963;DHT22;38827;53.024;6.596;2023-08-06T05:29:32;14.30;88.40
52963;DHT22;38827;53.024;6.596;2023-08-06T05:42:29;14.40;88.20
52963;DHT22;38827;53.024;6.596;2023-08-06T05:44:59;14.40;88.00
52963;DHT22;38827;53.024;6.596;2023-08-06T05:47:47;14.40;88.10
52963;DHT22;38827;53.024;6.596;2023-08-06T05:50:29;14.40;87.80
52963;DHT22;38827;53.024;6.596;2023-08-06T05:52:55;14.50;88.00
52963;DHT22;38827;53.024;6.596;2023-08-06T05:55:26;14.50;88.00
52963;DHT22;38827;53.024;6.596;2023-08-06T05:57:58;14.60;88.00
52963;DHT22;38827;53.024;6.596;2023-08-06T06:00:26;14.60;87.80
52963;DHT22;38827;53.024;6.596;2023-08-06T06:03:07;14.70;87.70
52963;DHT22;38827;53.024;6.596;2023-08-06T06:05:33;14.70;87.30
52963;DHT22;38827;53.024;6.596;2023-08-06T06:08:14;14.70;87.30
52963;DHT22;38827;53.024;6.596;2023-08-06T06:10:39;14.80;86.70
52963;DHT22;38827;53.024;6.596;2023-08-06T06:16:37;14.80;86.50
52963;DHT22;38827;53.024;6.596;2023-08-06T06:19:17;14.80;86.60
52963;DHT22;38827;53.024;6.596;2023-08-06T06:21:43;14.80;86.60
52963;DHT22;38827;53.024;6.596;2023-08-06T06:24:34;14.90;86.90
52963;DHT22;38827;53.024;6.596;2023-08-06T06:54:52;15.70;86.00
52963;DHT22;38827;53.024;6.596;2023-08-06T06:57:24;15.80;85.90
52963;DHT22;38827;53.024;6.596;2023-08-06T06:59:53;16.00;85.60
52963;DHT22;38827;53.024;6.596;2023-08-06T07:09:18;16.30;84.50
52963;DHT22;38827;53.024;6.596;2023-08-06T07:11:45;16.30;84.70
52963;DHT22;38827;53.024;6.596;2023-08-06T07:14:20;16.40;84.70
52963;DHT22;38827;53.024;6.596;2023-08-06T07:17:07;16.50;84.00
52963;DHT22;38827;53.024;6.596;2023-08-06T07:19:32;16.60;83.40
52963;DHT22;38827;53.024;6.596;2023-08-06T07:22:01;16.60;83.40
52963;DHT22;38827;53.024;6.596;2023-08-06T07:24:36;16.80;83.10
52963;DHT22;38827;53.024;6.596;2023-08-06T07:27:15;16.90;82.80
52963;DHT22;38827;53.024;6.596;2023-08-06T07:29:59;17.00;82.10
52963;DHT22;38827;53.024;6.596;2023-08-06T07:32:35;17.10;82.00
52963;DHT22;38827;53.024;6.596;2023-08-06T07:35:10;17.20;81.70
52963;DHT22;38827;53.024;6.596;2023-08-06T07:37:47;17.30;81.40
52963;DHT22;38827;53.024;6.596;2023-08-06T07:40:19;17.40;81.60
52963;DHT22;38827;53.024;6.596;2023-08-06T07:42:50;17.60;81.10
52963;DHT22;38827;53.024;6.596;2023-08-06T07:49:00;18.00;79.50
52963;DHT22;38827;53.024;6.596;2023-08-06T07:59:03;18.10;78.50
52963;DHT22;38827;53.024;6.596;2023-08-06T08:12:18;18.40;77.60
52963;DHT22;38827;53.024;6.596;2023-08-06T08:14:53;18.70;76.80
52963;DHT22;38827;53.024;6.596;2023-08-06T08:17:18;18.90;76.10
52963;DHT22;38827;53.024;6.596;2023-08-06T08:19:44;19.10;76.00
52963;DHT22;38827;53.024;6.596;2023-08-06T08:22:10;19.30;75.50
52963;DHT22;38827;53.024;6.596;2023-08-06T08:24:36;19.50;74.80
52963;DHT22;38827;53.024;6.596;2023-08-06T08:27:01;19.70;74.30
52963;DHT22;38827;53.024;6.596;2023-08-06T08:29:27;19.80;74.20
52963;DHT22;38827;53.024;6.596;2023-08-06T08:31:53;19.90;73.90
52963;DHT22;38827;53.024;6.596;2023-08-06T08:34:19;20.00;73.50
52963;DHT22;38827;53.024;6.596;2023-08-06T08:36:44;20.10;73.10
52963;DHT22;38827;53.024;6.596;2023-08-06T08:39:16;20.30;72.40
52963;DHT22;38827;53.024;6.596;2023-08-06T08:41:42;20.50;72.20
52963;DHT22;38827;53.024;6.596;2023-08-06T08:44:13;20.60;71.90
52963;DHT22;38827;53.024;6.596;2023-08-06T08:46:42;20.80;71.30
52963;DHT22;38827;53.024;6.596;2023-08-06T08:57:50;21.60;68.50
52963;DHT22;38827;53.024;6.596;2023-08-06T09:00:21;21.90;67.70
52963;DHT22;38827;53.024;6.596;2023-08-06T09:03:15;22.10;66.50
52963;DHT22;38827;53.024;6.596;2023-08-06T09:16:48;23.30;63.60
52963;DHT22;38827;53.024;6.596;2023-08-06T09:19:17;23.40;63.30
52963;DHT22;38827;53.024;6.596;2023-08-06T09:21:46;23.60;62.50
52963;DHT22;38827;53.024;6.596;2023-08-06T09:24:14;23.70;61.70
52963;DHT22;38827;53.024;6.596;2023-08-06T09:26:42;23.80;61.30
52963;DHT22;38827;53.024;6.596;2023-08-06T09:37:15;25.10;57.90
52963;DHT22;38827;53.024;6.596;2023-08-06T09:39:40;25.40;55.90
52963;DHT22;38827;53.024;6.596;2023-08-06T09:42:09;25.70;55.40
52963;DHT22;38827;53.024;6.596;2023-08-06T09:44:34;26.00;55.00
52963;DHT22;38827;53.024;6.596;2023-08-06T09:47:02;26.10;53.90
52963;DHT22;38827;53.024;6.596;2023-08-06T09:49:41;26.10;53.90
52963;DHT22;38827;53.024;6.596;2023-08-06T09:52:12;26.10;54.30
52963;DHT22;38827;53.024;6.596;2023-08-06T09:54:38;26.20;53.70
52963;DHT22;38827;53.024;6.596;2023-08-06T09:57:05;26.20;53.00
52963;DHT22;38827;53.024;6.596;2023-08-06T09:59:32;26.20;53.50
52963;DHT22;38827;53.024;6.596;2023-08-06T10:01:58;26.00;54.30
52963;DHT22;38827;53.024;6.596;2023-08-06T10:04:25;26.10;53.20
52963;DHT22;38827;53.024;6.596;2023-08-06T10:06:51;26.40;51.80
52963;DHT22;38827;53.024;6.596;2023-08-06T10:09:17;26.60;51.40
52963;DHT22;38827;53.024;6.596;2023-08-06T10:11:49;26.90;50.60
52963;DHT22;38827;53.024;6.596;2023-08-06T10:14:20;27.30;49.70
52963;DHT22;38827;53.024;6.596;2023-08-06T10:16:47;27.60;49.20
52963;DHT22;38827;53.024;6.596;2023-08-06T10:19:14;27.70;48.20
52963;DHT22;38827;53.024;6.596;2023-08-06T10:21:41;27.70;47.90
52963;DHT22;38827;53.024;6.596;2023-08-06T10:24:07;27.60;48.40
52963;DHT22;38827;53.024;6.596;2023-08-06T10:26:37;27.40;48.30
52963;DHT22;38827;53.024;6.596;2023-08-06T10:29:37;27.30;47.90
52963;DHT22;38827;53.024;6.596;2023-08-06T10:32:03;27.10;48.00
52963;DHT22;38827;53.024;6.596;2023-08-06T10:34:57;26.70;49.00
52963;DHT22;38827;53.024;6.596;2023-08-06T10:37:25;26.40;49.80
52963;DHT22;38827;53.024;6.596;2023-08-06T10:40:00;26.10;49.30
52963;DHT22;38827;53.024;6.596;2023-08-06T10:42:35;25.80;49.60
52963;DHT22;38827;53.024;6.596;2023-08-06T10:45:18;25.60;49.90
52963;DHT22;38827;53.024;6.596;2023-08-06T10:47:44;25.30;51.00
52963;DHT22;38827;53.024;6.596;2023-08-06T10:50:15;25.00;51.30
52963;DHT22;38827;53.024;6.596;2023-08-06T10:52:46;24.90;52.10
52963;DHT22;38827;53.024;6.596;2023-08-06T10:55:22;24.90;51.80
52963;DHT22;38827;53.024;6.596;2023-08-06T10:57:48;25.00;51.50
52963;DHT22;38827;53.024;6.596;2023-08-06T11:00:14;25.10;50.80
52963;DHT22;38827;53.024;6.596;2023-08-06T11:02:39;25.10;51.10
52963;DHT22;38827;53.024;6.596;2023-08-06T11:05:06;25.20;51.20
52963;DHT22;38827;53.024;6.596;2023-08-06T11:07:32;25.10;50.50
52963;DHT22;38827;53.024;6.596;2023-08-06T11:10:02;25.00;51.00
52963;DHT22;38827;53.024;6.596;2023-08-06T11:12:28;24.90;51.90
52963;DHT22;38827;53.024;6.596;2023-08-06T11:14:54;24.70;51.50
52963;DHT22;38827;53.024;6.596;2023-08-06T11:17:21;24.60;51.40
52963;DHT22;38827;53.024;6.596;2023-08-06T11:19:47;24.50;50.40
52963;DHT22;38827;53.024;6.596;2023-08-06T11:24:59;24.60;52.00
52963;DHT22;38827;53.024;6.596;2023-08-06T11:27:28;24.80;51.30
52963;DHT22;38827;53.024;6.596;2023-08-06T11:29:54;24.90;50.90
52963;DHT22;38827;53.024;6.596;2023-08-06T11:32:20;25.00;50.60
52963;DHT22;38827;53.024;6.596;2023-08-06T11:34:45;25.20;50.20
52963;DHT22;38827;53.024;6.596;2023-08-06T11:37:11;25.40;50.90
52963;DHT22;38827;53.024;6.596;2023-08-06T11:39:38;25.40;49.90
52963;DHT22;38827;53.024;6.596;2023-08-06T11:42:07;25.30;49.70
52963;DHT22;38827;53.024;6.596;2023-08-06T11:44:35;25.10;51.20
52963;DHT22;38827;53.024;6.596;2023-08-06T11:47:05;25.00;50.90
52963;DHT22;38827;53.024;6.596;2023-08-06T11:49:49;24.90;50.40
52963;DHT22;38827;53.024;6.596;2023-08-06T11:52:25;24.80;50.50
52963;DHT22;38827;53.024;6.596;2023-08-06T11:55:22;24.70;50.90
52963;DHT22;38827;53.024;6.596;2023-08-06T11:57:48;24.70;50.10
52963;DHT22;38827;53.024;6.596;2023-08-06T12:00:20;24.70;50.60
52963;DHT22;38827;53.024;6.596;2023-08-06T12:02:49;24.70;50.00
52963;DHT22;38827;53.024;6.596;2023-08-06T12:05:17;24.60;49.70
52963;DHT22;38827;53.024;6.596;2023-08-06T12:07:45;24.50;49.90
52963;DHT22;38827;53.024;6.596;2023-08-06T12:10:12;24.50;50.10
52963;DHT22;38827;53.024;6.596;2023-08-06T12:12:38;24.50;50.00
52963;DHT22;38827;53.024;6.596;2023-08-06T12:15:05;24.50;50.00
52963;DHT22;38827;53.024;6.596;2023-08-06T12:17:32;24.50;49.30
52963;DHT22;38827;53.024;6.596;2023-08-06T12:19:58;24.60;49.90
52963;DHT22;38827;53.024;6.596;2023-08-06T12:22:25;24.70;49.70
52963;DHT22;38827;53.024;6.596;2023-08-06T12:24:50;25.00;48.80
52963;DHT22;38827;53.024;6.596;2023-08-06T12:27:16;25.30;47.80
52963;DHT22;38827;53.024;6.596;2023-08-06T12:29:47;25.60;47.80
52963;DHT22;38827;53.024;6.596;2023-08-06T12:32:13;26.00;47.70
52963;DHT22;38827;53.024;6.596;2023-08-06T12:34:40;27.00;46.20
52963;DHT22;38827;53.024;6.596;2023-08-06T12:37:07;27.90;44.40
52963;DHT22;38827;53.024;6.596;2023-08-06T12:39:33;28.00;43.90
52963;DHT22;38827;53.024;6.596;2023-08-06T12:42:00;27.80;44.00
52963;DHT22;38827;53.024;6.596;2023-08-06T12:44:26;28.20;44.10
52963;DHT22;38827;53.024;6.596;2023-08-06T12:55:07;30.10;41.20
52963;DHT22;38827;53.024;6.596;2023-08-06T12:57:33;30.90;40.50
52963;DHT22;38827;53.024;6.596;2023-08-06T13:00:12;31.30;39.40
52963;DHT22;38827;53.024;6.596;2023-08-06T13:02:37;31.50;37.90
52963;DHT22;38827;53.024;6.596;2023-08-06T13:05:03;31.30;38.60
52963;DHT22;38827;53.024;6.596;2023-08-06T13:07:32;30.50;38.70
52963;DHT22;38827;53.024;6.596;2023-08-06T13:09:58;29.90;40.10
52963;DHT22;38827;53.024;6.596;2023-08-06T13:12:24;30.30;39.70
52963;DHT22;38827;53.024;6.596;2023-08-06T13:14:49;31.10;39.00
52963;DHT22;38827;53.024;6.596;2023-08-06T13:17:15;31.80;37.70
52963;DHT22;38827;53.024;6.596;2023-08-06T13:19:41;31.90;37.20
52963;DHT22;38827;53.024;6.596;2023-08-06T13:22:06;31.20;37.50
52963;DHT22;38827;53.024;6.596;2023-08-06T13:24:34;30.20;39.00
52963;DHT22;38827;53.024;6.596;2023-08-06T13:27:00;29.40;40.00
52963;DHT22;38827;53.024;6.596;2023-08-06T13:29:26;28.60;41.30
52963;DHT22;38827;53.024;6.596;2023-08-06T13:31:53;28.20;42.10
52963;DHT22;38827;53.024;6.596;2023-08-06T13:34:18;28.10;41.90
52963;DHT22;38827;53.024;6.596;2023-08-06T13:36:44;28.70;41.70
52963;DHT22;38827;53.024;6.596;2023-08-06T13:39:10;29.10;41.00
52963;DHT22;38827;53.024;6.596;2023-08-06T13:41:39;29.40;41.50
52963;DHT22;38827;53.024;6.596;2023-08-06T13:44:05;29.70;41.00
52963;DHT22;38827;53.024;6.596;2023-08-06T13:46:30;30.20;39.80
52963;DHT22;38827;53.024;6.596;2023-08-06T14:04:06;29.10;42.10
52963;DHT22;38827;53.024;6.596;2023-08-06T14:06:54;29.00;42.20
52963;DHT22;38827;53.024;6.596;2023-08-06T14:09:41;28.30;41.80
52963;DHT22;38827;53.024;6.596;2023-08-06T14:15:50;26.80;43.90
52963;DHT22;38827;53.024;6.596;2023-08-06T14:18:16;26.90;44.90
52963;DHT22;38827;53.024;6.596;2023-08-06T14:20:43;27.10;44.70
52963;DHT22;38827;53.024;6.596;2023-08-06T14:23:09;27.30;44.20
52963;DHT22;38827;53.024;6.596;2023-08-06T14:25:35;27.60;43.80
52963;DHT22;38827;53.024;6.596;2023-08-06T14:28:00;27.60;43.50
52963;DHT22;38827;53.024;6.596;2023-08-06T14:30:26;27.40;43.90
52963;DHT22;38827;53.024;6.596;2023-08-06T14:32:52;27.10;44.50
52963;DHT22;38827;53.024;6.596;2023-08-06T14:35:18;26.90;44.70
52963;DHT22;38827;53.024;6.596;2023-08-06T14:37:43;26.80;44.80
52963;DHT22;38827;53.024;6.596;2023-08-06T14:40:11;26.70;44.90
52963;DHT22;38827;53.024;6.596;2023-08-06T14:42:46;26.60;45.70
52963;DHT22;38827;53.024;6.596;2023-08-06T14:45:13;26.50;45.50
52963;DHT22;38827;53.024;6.596;2023-08-06T14:47:40;26.40;46.10
52963;DHT22;38827;53.024;6.596;2023-08-06T14:50:07;26.40;46.00
52963;DHT22;38827;53.024;6.596;2023-08-06T14:52:33;26.40;46.60
52963;DHT22;38827;53.024;6.596;2023-08-06T14:55:00;26.30;45.90
52963;DHT22;38827;53.024;6.596;2023-08-06T14:57:27;26.20;46.00
52963;DHT22;38827;53.024;6.596;2023-08-06T14:59:54;26.10;46.40
52963;DHT22;38827;53.024;6.596;2023-08-06T15:02:20;26.10;46.70
52963;DHT22;38827;53.024;6.596;2023-08-06T15:04:46;26.10;46.60
52963;DHT22;38827;53.024;6.596;2023-08-06T15:07:12;25.90;46.50
52963;DHT22;38827;53.024;6.596;2023-08-06T15:09:39;25.70;47.00
52963;DHT22;38827;53.024;6.596;2023-08-06T15:12:05;25.60;47.30
52963;DHT22;38827;53.024;6.596;2023-08-06T15:14:31;25.40;47.30
52963;DHT22;38827;53.024;6.596;2023-08-06T15:25:42;25.10;48.30
52963;DHT22;38827;53.024;6.596;2023-08-06T15:28:08;25.00;48.10
52963;DHT22;38827;53.024;6.596;2023-08-06T15:30:36;24.80;48.70
52963;DHT22;38827;53.024;6.596;2023-08-06T15:33:02;24.70;48.40
52963;DHT22;38827;53.024;6.596;2023-08-06T15:35:27;24.60;48.70
52963;DHT22;38827;53.024;6.596;2023-08-06T15:37:53;24.40;48.90
52963;DHT22;38827;53.024;6.596;2023-08-06T15:40:19;24.20;49.40
52963;DHT22;38827;53.024;6.596;2023-08-06T15:42:44;24.20;50.50
52963;DHT22;38827;53.024;6.596;2023-08-06T15:45:10;24.20;50.00
52963;DHT22;38827;53.024;6.596;2023-08-06T15:47:36;24.10;49.60
52963;DHT22;38827;53.024;6.596;2023-08-06T15:50:08;24.10;49.90
52963;DHT22;38827;53.024;6.596;2023-08-06T15:52:35;24.00;49.60
52963;DHT22;38827;53.024;6.596;2023-08-06T15:55:02;23.90;49.70
52963;DHT22;38827;53.024;6.596;2023-08-06T15:57:35;23.70;49.90
52963;DHT22;38827;53.024;6.596;2023-08-06T16:00:03;23.50;50.30
52963;DHT22;38827;53.024;6.596;2023-08-06T16:02:29;23.30;50.30
52963;DHT22;38827;53.024;6.596;2023-08-06T16:04:56;23.10;50.90
52963;DHT22;38827;53.024;6.596;2023-08-06T16:07:22;23.00;51.20
52963;DHT22;38827;53.024;6.596;2023-08-06T16:09:50;22.90;51.00
52963;DHT22;38827;53.024;6.596;2023-08-06T16:12:17;22.80;51.20
52963;DHT22;38827;53.024;6.596;2023-08-06T16:14:45;22.70;51.50
52963;DHT22;38827;53.024;6.596;2023-08-06T16:17:10;22.60;51.90
52963;DHT22;38827;53.024;6.596;2023-08-06T16:19:36;22.60;52.50
52963;DHT22;38827;53.024;6.596;2023-08-06T16:22:02;22.50;52.50
52963;DHT22;38827;53.024;6.596;2023-08-06T16:30:25;22.30;51.90
52963;DHT22;38827;53.024;6.596;2023-08-06T16:33:30;22.40;52.00
52963;DHT22;38827;53.024;6.596;2023-08-06T16:36:02;22.40;52.30
52963;DHT22;38827;53.024;6.596;2023-08-06T16:54:29;21.80;52.90
52963;DHT22;38827;53.024;6.596;2023-08-06T16:57:01;21.80;52.80
52963;DHT22;38827;53.024;6.596;2023-08-06T16:59:27;21.70;53.30
52963;DHT22;38827;53.024;6.596;2023-08-06T17:02:26;21.60;53.10
52963;DHT22;38827;53.024;6.596;2023-08-06T17:05:14;21.40;53.60
52963;DHT22;38827;53.024;6.596;2023-08-06T17:07:40;21.20;54.20
52963;DHT22;38827;53.024;6.596;2023-08-06T17:10:36;21.10;54.80
52963;DHT22;38827;53.024;6.596;2023-08-06T17:13:14;21.00;55.20
52963;DHT22;38827;53.024;6.596;2023-08-06T17:18:29;20.80;56.20
52963;DHT22;38827;53.024;6.596;2023-08-06T17:23:56;20.60;56.90
52963;DHT22;38827;53.024;6.596;2023-08-06T17:26:29;20.50;57.30
52963;DHT22;38827;53.024;6.596;2023-08-06T17:29:14;20.50;57.70
52963;DHT22;38827;53.024;6.596;2023-08-06T17:42:43;20.40;58.20
52963;DHT22;38827;53.024;6.596;2023-08-06T17:48:48;20.40;59.80
52963;DHT22;38827;53.024;6.596;2023-08-06T17:51:14;20.20;60.90
52963;DHT22;38827;53.024;6.596;2023-08-06T17:53:53;20.10;61.40
52963;DHT22;38827;53.024;6.596;2023-08-06T17:56:40;20.00;62.80
52963;DHT22;38827;53.024;6.596;2023-08-06T17:59:06;19.90;64.00
52963;DHT22;38827;53.024;6.596;2023-08-06T18:01:51;19.80;63.50
52963;DHT22;38827;53.024;6.596;2023-08-06T18:23:15;18.90;67.00
52963;DHT22;38827;53.024;6.596;2023-08-06T18:25:43;18.80;66.50
52963;DHT22;38827;53.024;6.596;2023-08-06T18:32:08;18.60;66.70
52963;DHT22;38827;53.024;6.596;2023-08-06T18:34:34;18.40;66.80
52963;DHT22;38827;53.024;6.596;2023-08-06T18:40:09;18.20;67.40
52963;DHT22;38827;53.024;6.596;2023-08-06T18:42:43;18.10;68.00
52963;DHT22;38827;53.024;6.596;2023-08-06T18:49:21;18.00;69.10
52963;DHT22;38827;53.024;6.596;2023-08-06T18:52:06;17.90;69.10
52963;DHT22;38827;53.024;6.596;2023-08-06T18:55:29;17.90;69.60
52963;DHT22;38827;53.024;6.596;2023-08-06T18:58:08;17.80;70.40
52963;DHT22;38827;53.024;6.596;2023-08-06T19:00:56;17.80;70.20
52963;DHT22;38827;53.024;6.596;2023-08-06T19:03:23;17.80;70.60
52963;DHT22;38827;53.024;6.596;2023-08-06T19:05:52;17.70;70.50
52963;DHT22;38827;53.024;6.596;2023-08-06T19:08:24;17.70;71.10
52963;DHT22;38827;53.024;6.596;2023-08-06T19:17:05;17.50;72.90
52963;DHT22;38827;53.024;6.596;2023-08-06T19:19:31;17.40;73.60
52963;DHT22;38827;53.024;6.596;2023-08-06T19:22:01;17.40;74.10
52963;DHT22;38827;53.024;6.596;2023-08-06T19:24:26;17.30;74.60
52963;DHT22;38827;53.024;6.596;2023-08-06T19:26:52;17.20;75.10